sensor_id;sensor_type;location;lat;lon;timestamp;pressure;altitude;pressure_sealevel;temperature;humidity
60433;BME280;46286;48.098;11.590;2022-08-19T00:00:46;95076.66;;;16.97;100.00
60433;BME280;46286;48.098;11.590;2022-08-19T00:03:11;95084.97;;;16.96;100.00
60433;BME280;46286;48.098;11.590;2022-08-19T00:05:37;95093.38;;;16.98;100.00
60433;BME280;46286;48.098;11.590;2022-08-19T00:08:02;95078.72;;;16.92;100.00
60433;BME280;46286;48.098;11.590;2022-08-19T00:10:28;95069.66;;;16.93;100.00
60433;BME280;46286;48.098;11.590;2022-08-19T00:12:54;95070.59;;;16.97;100.00
60433;BME280;46286;48.098;11.590;2022-08-19T00:15:21;95058.22;;;17.01;100.00
60433;BME280;46286;48.098;11.590;2022-08-19T00:17:47;95048.78;;;17.04;100.00
60433;BME280;46286;48.098;11.590;2022-08-19T00:20:17;95047.38;;;17.06;100.00
60433;BME280;46286;48.098;11.590;2022-08-19T00:22:44;95044.94;;;17.01;100.00
60433;BME280;46286;48.098;11.590;2022-08-19T00:25:11;95042.06;;;17.06;100.00
60433;BME280;46286;48.098;11.590;2022-08-19T00:27:36;95033.00;;;17.07;100.00
60433;BME280;46286;48.098;11.590;2022-08-19T00:30:04;95027.03;;;17.10;100.00
60433;BME280;46286;48.098;11.590;2022-08-19T00:32:31;95030.50;;;17.02;100.00
60433;BME280;46286;48.098;11.590;2022-08-19T00:34:56;95033.66;;;17.04;100.00
60433;BME280;46286;48.098;11.590;2022-08-19T00:37:23;95033.00;;;17.07;100.00
60433;BME280;46286;48.098;11.590;2022-08-19T00:39:51;95031.59;;;17.10;100.00
60433;BME280;46286;48.098;11.590;2022-08-19T00:42:19;95026.31;;;17.01;100.00
60433;BME280;46286;48.098;11.590;2022-08-19T00:44:45;95025.19;;;17.02;100.00
60433;BME280;46286;48.098;11.590;2022-08-19T00:47:10;95025.66;;;17.04;100.00
60433;BME280;46286;48.098;11.590;2022-08-19T00:49:45;95013.03;;;17.01;100.00
60433;BME280;46286;48.098;11.590;2022-08-19T00:52:29;94998.63;;;17.02;100.00
60433;BME280;46286;48.098;11.590;2022-08-19T00:54:56;94989.72;;;16.98;100.00
60433;BME280;46286;48.098;11.590;2022-08-19T00:57:44;94987.72;;;16.95;100.00
60433;BME280;46286;48.098;11.590;2022-08-19T01:00:14;95000.06;;;17.00;100.00
60433;BME280;46286;48.098;11.590;2022-08-19T01:02:41;95015.22;;;16.99;100.00
60433;BME280;46286;48.098;11.590;2022-08-19T01:05:10;95013.66;;;16.98;100.00
60433;BME280;46286;48.098;11.590;2022-08-19T01:07:38;95000.69;;;16.96;100.00
60433;BME280;46286;48.098;11.590;2022-08-19T01:10:07;94993.94;;;16.99;100.00
60433;BME280;46286;48.098;11.590;2022-08-19T01:12:34;94982.41;;;16.95;100.00
60433;BME280;46286;48.098;11.590;2022-08-19T01:15:00;94989.72;;;16.98;100.00
60433;BME280;46286;48.098;11.590;2022-08-19T01:17:26;94982.03;;;17.05;100.00
60433;BME280;46286;48.098;11.590;2022-08-19T01:19:52;94985.16;;;17.07;100.00
60433;BME280;46286;48.098;11.590;2022-08-19T01:24:50;95011.47;;;17.00;100.00
60433;BME280;46286;48.098;11.590;2022-08-19T01:27:16;95007.56;;;16.97;100.00
60433;BME280;46286;48.098;11.590;2022-08-19T01:29:43;95025.06;;;16.99;100.00
60433;BME280;46286;48.098;11.590;2022-08-19T01:32:13;95032.13;;;16.94;100.00
60433;BME280;46286;48.098;11.590;2022-08-19T01:34:40;95042.63;;;16.91;100.00
60433;BME280;46286;48.098;11.590;2022-08-19T01:37:08;95049.06;;;16.90;100.00
60433;BME280;46286;48.098;11.590;2022-08-19T01:39:37;95042.16;;;16.89;100.00
60433;BME280;46286;48.098;11.590;2022-08-19T01:42:03;95038.41;;;16.90;100.00
60433;BME280;46286;48.098;11.590;2022-08-19T01:44:29;95039.53;;;16.80;100.00
60433;BME280;46286;48.098;11.590;2022-08-19T01:46:55;95042.78;;;16.86;100.00
60433;BME280;46286;48.098;11.590;2022-08-19T01:49:22;95045.28;;;16.91;100.00
60433;BME280;46286;48.098;11.590;2022-08-19T01:51:49;95050.13;;;16.89;100.00
60433;BME280;46286;48.098;11.590;2022-08-19T01:54:17;95064.19;;;16.89;100.00
60433;BME280;46286;48.098;11.590;2022-08-19T01:56:43;95061.84;;;16.88;100.00
60433;BME280;46286;48.098;11.590;2022-08-19T01:59:12;95049.81;;;16.90;100.00
60433;BME280;46286;48.098;11.590;2022-08-19T02:01:39;95038.41;;;16.90;100.00
60433;BME280;46286;48.098;11.590;2022-08-19T02:04:05;95041.06;;;16.90;100.00
60433;BME280;46286;48.098;11.590;2022-08-19T02:06:31;95050.59;;;16.91;100.00
60433;BME280;46286;48.098;11.590;2022-08-19T02:08:58;95039.03;;;16.87;100.00
60433;BME280;46286;48.098;11.590;2022-08-19T02:11:27;95047.00;;;16.87;100.00
60433;BME280;46286;48.098;11.590;2022-08-19T02:13:54;95062.94;;;16.87;100.00
60433;BME280;46286;48.098;11.590;2022-08-19T02:16:20;95060.28;;;16.87;100.00
60433;BME280;46286;48.098;11.590;2022-08-19T02:18:46;95073.75;;;16.82;100.00
60433;BME280;46286;48.098;11.590;2022-08-19T02:21:16;95069.34;;;16.86;100.00
60433;BME280;46286;48.098;11.590;2022-08-19T02:23:42;95062.78;;;16.92;100.00
60433;BME280;46286;48.098;11.590;2022-08-19T02:26:08;95065.75;;;16.90;100.00
60433;BME280;46286;48.098;11.590;2022-08-19T02:28:34;95074.38;;;16.78;100.00
60433;BME280;46286;48.098;11.590;2022-08-19T02:31:00;95068.44;;;16.82;100.00
60433;BME280;46286;48.098;11.590;2022-08-19T02:33:26;95067.34;;;16.83;100.00
60433;BME280;46286;48.098;11.590;2022-08-19T02:35:52;95061.84;;;16.88;100.00
60433;BME280;46286;48.098;11.590;2022-08-19T02:38:17;95049.19;;;16.85;100.00
60433;BME280;46286;48.098;11.590;2022-08-19T02:40:57;95029.19;;;16.87;100.00
60433;BME280;46286;48.098;11.590;2022-08-19T02:43:24;95016.50;;;16.93;100.00
60433;BME280;46286;48.098;11.590;2022-08-19T02:45:51;94993.38;;;16.85;100.00
60433;BME280;46286;48.098;11.590;2022-08-19T02:48:22;94991.97;;;16.87;100.00
60433;BME280;46286;48.098;11.590;2022-08-19T02:50:50;95001.34;;;16.85;100.00
60433;BME280;46286;48.098;11.590;2022-08-19T02:53:22;94996.25;;;16.79;100.00
60433;BME280;46286;48.098;11.590;2022-08-19T02:55:49;94990.13;;;16.79;100.00
60433;BME280;46286;48.098;11.590;2022-08-19T02:58:15;94991.06;;;16.83;100.00
60433;BME280;46286;48.098;11.590;2022-08-19T03:00:46;94997.00;;;16.89;100.00
60433;BME280;46286;48.098;11.590;2022-08-19T03:03:12;94992.94;;;16.83;100.00
60433;BME280;46286;48.098;11.590;2022-08-19T03:05:38;94991.81;;;16.84;100.00
60433;BME280;46286;48.098;11.590;2022-08-19T03:08:03;95008.13;;;16.73;100.00
60433;BME280;46286;48.098;11.590;2022-08-19T03:10:29;95006.59;;;16.72;100.00
60433;BME280;46286;48.098;11.590;2022-08-19T03:12:54;95015.34;;;16.73;100.00
60433;BME280;46286;48.098;11.590;2022-08-19T03:15:20;95012.06;;;16.67;100.00
60433;BME280;46286;48.098;11.590;2022-08-19T03:17:45;95011.00;;;16.68;100.00
60433;BME280;46286;48.098;11.590;2022-08-19T03:20:11;95002.81;;;16.73;100.00
60433;BME280;46286;48.098;11.590;2022-08-19T03:22:36;95027.22;;;16.75;100.00
60433;BME280;46286;48.098;11.590;2022-08-19T03:25:03;95035.63;;;16.77;100.00
60433;BME280;46286;48.098;11.590;2022-08-19T03:27:29;95041.59;;;16.74;100.00
60433;BME280;46286;48.098;11.590;2022-08-19T03:29:55;95027.84;;;16.72;100.00
60433;BME280;46286;48.098;11.590;2022-08-19T03:32:20;95026.94;;;16.68;100.00
60433;BME280;46286;48.098;11.590;2022-08-19T03:34:47;95023.94;;;16.70;100.00
60433;BME280;46286;48.098;11.590;2022-08-19T03:37:12;95022.53;;;16.72;100.00
60433;BME280;46286;48.098;11.590;2022-08-19T03:39:38;95023.63;;;16.71;100.00
60433;BME280;46286;48.098;11.590;2022-08-19T03:42:04;95022.53;;;16.72;100.00
60433;BME280;46286;48.098;11.590;2022-08-19T03:44:31;95027.22;;;16.75;100.00
60433;BME280;46286;48.098;11.590;2022-08-19T03:46:59;95026.56;;;16.78;100.00
60433;BME280;46286;48.098;11.590;2022-08-19T03:49:27;95025.38;;;16.67;100.00
60433;BME280;46286;48.098;11.590;2022-08-19T03:51:54;95031.88;;;16.78;100.00
60433;BME280;46286;48.098;11.590;2022-08-19T03:54:22;95034.06;;;16.76;100.00
60433;BME280;46286;48.098;11.590;2022-08-19T03:56:50;95022.81;;;16.79;100.00
60433;BME280;46286;48.098;11.590;2022-08-19T03:59:20;95020.59;;;16.82;100.00
60433;BME280;46286;48.098;11.590;2022-08-19T04:01:46;95025.00;;;16.77;100.00
60433;BME280;46286;48.098;11.590;2022-08-19T04:04:11;95018.41;;;16.84;100.00
60433;BME280;46286;48.098;11.590;2022-08-19T04:06:38;95020.59;;;16.82;100.00
60433;BME280;46286;48.098;11.590;2022-08-19T04:09:07;95021.38;;;16.82;100.00
60433;BME280;46286;48.098;11.590;2022-08-19T04:11:41;95014.81;;;16.88;100.00
60433;BME280;46286;48.098;11.590;2022-08-19T04:14:08;95018.53;;;16.87;100.00
60433;BME280;46286;48.098;11.590;2022-08-19T04:16:34;95022.47;;;16.90;100.00
60433;BME280;46286;48.098;11.590;2022-08-19T04:19:01;95032.47;;;16.93;100.00
60433;BME280;46286;48.098;11.590;2022-08-19T04:21:28;95036.22;;;16.92;100.00
60433;BME280;46286;48.098;11.590;2022-08-19T04:23:55;95031.53;;;16.89;100.00
60433;BME280;46286;48.098;11.590;2022-08-19T04:26:24;95015.59;;;16.89;100.00
60433;BME280;46286;48.098;11.590;2022-08-19T04:28:50;95026.84;;;16.86;100.00
60433;BME280;46286;48.098;11.590;2022-08-19T04:31:22;95039.81;;;16.87;100.00
60433;BME280;46286;48.098;11.590;2022-08-19T04:33:56;95043.56;;;16.86;100.00
60433;BME280;46286;48.098;11.590;2022-08-19T04:36:27;95053.25;;;16.91;100.00
60433;BME280;46286;48.098;11.590;2022-08-19T04:38:55;95055.75;;;16.87;100.00
60433;BME280;46286;48.098;11.590;2022-08-19T04:41:21;95044.50;;;16.90;100.00
60433;BME280;46286;48.098;11.590;2022-08-19T04:44:06;95060.91;;;16.84;100.00
60433;BME280;46286;48.098;11.590;2022-08-19T04:46:32;95070.94;;;16.87;100.00
60433;BME280;46286;48.098;11.590;2022-08-19T04:48:59;95066.22;;;16.84;100.00
60433;BME280;46286;48.098;11.590;2022-08-19T04:51:26;95067.78;;;16.85;100.00
60433;BME280;46286;48.098;11.590;2022-08-19T04:53:51;95076.84;;;16.84;100.00
60433;BME280;46286;48.098;11.590;2022-08-19T04:56:19;95074.81;;;16.89;100.00
60433;BME280;46286;48.098;11.590;2022-08-19T04:58:48;95085.31;;;16.86;100.00
60433;BME280;46286;48.098;11.590;2022-08-19T05:01:27;95083.13;;;16.88;100.00
60433;BME280;46286;48.098;11.590;2022-08-19T05:03:54;95086.88;;;16.87;100.00
60433;BME280;46286;48.098;11.590;2022-08-19T05:06:21;95082.31;;;16.87;100.00
60433;BME280;46286;48.098;11.590;2022-08-19T05:08:47;95083.28;;;16.83;100.00
60433;BME280;46286;48.098;11.590;2022-08-19T05:11:19;95100.50;;;16.76;100.00
60433;BME280;46286;48.098;11.590;2022-08-19T05:13:46;95106.28;;;16.78;100.00
60433;BME280;46286;48.098;11.590;2022-08-19T05:16:13;95092.19;;;16.87;100.00
60433;BME280;46286;48.098;11.590;2022-08-19T05:18:39;95079.97;;;16.86;100.00
60433;BME280;46286;48.098;11.590;2022-08-19T05:21:25;95077.63;;;16.93;100.00
60433;BME280;46286;48.098;11.590;2022-08-19T05:24:09;95094.03;;;16.95;100.00
60433;BME280;46286;48.098;11.590;2022-08-19T05:26:36;95084.97;;;16.96;100.00
60433;BME280;46286;48.098;11.590;2022-08-19T05:29:02;95065.59;;;16.87;100.00
60433;BME280;46286;48.098;11.590;2022-08-19T05:31:29;95065.28;;;16.97;100.00
60433;BME280;46286;48.098;11.590;2022-08-19T05:33:54;95066.81;;;16.98;100.00
60433;BME280;46286;48.098;11.590;2022-08-19T05:36:21;95061.38;;;16.94;100.00
60433;BME280;46286;48.098;11.590;2022-08-19T05:38:46;95065.72;;;16.99;100.00
60433;BME280;46286;48.098;11.590;2022-08-19T05:41:14;95062.41;;;17.02;100.00
60433;BME280;46286;48.098;11.590;2022-08-19T05:43:40;95057.75;;;16.99;100.00
60433;BME280;46286;48.098;11.590;2022-08-19T05:46:06;95061.66;;;17.02;100.00
60433;BME280;46286;48.098;11.590;2022-08-19T05:48:33;95065.81;;;17.11;100.00
60433;BME280;46286;48.098;11.590;2022-08-19T05:51:06;95064.72;;;17.12;100.00
60433;BME280;46286;48.098;11.590;2022-08-19T05:53:34;95056.09;;;17.16;100.00
60433;BME280;46286;48.098;11.590;2022-08-19T05:56:07;95056.09;;;17.16;100.00
60433;BME280;46286;48.098;11.590;2022-08-19T05:58:34;95070.31;;;17.20;100.00
60433;BME280;46286;48.098;11.590;2022-08-19T06:01:00;95071.03;;;17.29;100.00
60433;BME280;46286;48.098;11.590;2022-08-19T06:03:32;95071.19;;;17.24;100.00
60433;BME280;46286;48.098;11.590;2022-08-19T06:05:59;95071.03;;;17.29;100.00
60433;BME280;46286;48.098;11.590;2022-08-19T06:08:26;95066.22;;;17.22;100.00
60433;BME280;46286;48.098;11.590;2022-08-19T06:10:52;95064.13;;;17.28;100.00
60433;BME280;46286;48.098;11.590;2022-08-19T06:13:17;95070.88;;;17.25;100.00
60433;BME280;46286;48.098;11.590;2022-08-19T06:15:45;95085.16;;;17.21;100.00
60433;BME280;46286;48.098;11.590;2022-08-19T06:18:13;95078.03;;;17.12;100.00
60433;BME280;46286;48.098;11.590;2022-08-19T06:20:40;95083.34;;;17.12;100.00
60433;BME280;46286;48.098;11.590;2022-08-19T06:23:06;95090.50;;;17.12;100.00
60433;BME280;46286;48.098;11.590;2022-08-19T06:25:32;95093.03;;;17.08;100.00
60433;BME280;46286;48.098;11.590;2022-08-19T06:27:57;95088.81;;;17.07;100.00
60433;BME280;46286;48.098;11.590;2022-08-19T06:30:23;95088.38;;;17.05;100.00
60433;BME280;46286;48.098;11.590;2022-08-19T06:32:48;95080.41;;;16.96;100.00
60433;BME280;46286;48.098;11.590;2022-08-19T06:35:14;95072.78;;;16.95;100.00
60433;BME280;46286;48.098;11.590;2022-08-19T06:37:40;95076.06;;;16.92;100.00
60433;BME280;46286;48.098;11.590;2022-08-19T06:40:07;95073.59;;;16.87;100.00
60433;BME280;46286;48.098;11.590;2022-08-19T06:42:34;95071.84;;;16.91;100.00
60433;BME280;46286;48.098;11.590;2022-08-19T06:45:00;95074.50;;;16.91;100.00
60433;BME280;46286;48.098;11.590;2022-08-19T06:47:29;95074.66;;;16.86;100.00
60433;BME280;46286;48.098;11.590;2022-08-19T06:49:56;95078.59;;;16.88;100.00
60433;BME280;46286;48.098;11.590;2022-08-19T06:52:27;95077.97;;;16.91;100.00
60433;BME280;46286;48.098;11.590;2022-08-19T06:54:52;95078.09;;;16.95;100.00
60433;BME280;46286;48.098;11.590;2022-08-19T06:57:19;95076.81;;;17.01;100.00
60433;BME280;46286;48.098;11.590;2022-08-19T06:59:45;95069.78;;;17.05;100.00
60433;BME280;46286;48.098;11.590;2022-08-19T07:02:10;95063.97;;;17.03;100.00
60433;BME280;46286;48.098;11.590;2022-08-19T07:04:36;95068.00;;;17.09;100.00
60433;BME280;46286;48.098;11.590;2022-08-19T07:07:09;95066.09;;;17.19;100.00
60433;BME280;46286;48.098;11.590;2022-08-19T07:09:37;95068.28;;;17.17;100.00
60433;BME280;46286;48.098;11.590;2022-08-19T07:12:05;95066.22;;;17.22;100.00
60433;BME280;46286;48.098;11.590;2022-08-19T07:14:33;95063.50;;;17.31;100.00
60433;BME280;46286;48.098;11.590;2022-08-19T07:17:03;95063.22;;;17.24;100.00
60433;BME280;46286;48.098;11.590;2022-08-19T07:19:29;95051.06;;;17.23;100.00
60433;BME280;46286;48.098;11.590;2022-08-19T07:21:55;95046.25;;;17.37;100.00
60433;BME280;46286;48.098;11.590;2022-08-19T07:24:25;95037.63;;;17.40;100.00
60433;BME280;46286;48.098;11.590;2022-08-19T07:26:55;95033.00;;;17.49;100.00
60433;BME280;46286;48.098;11.590;2022-08-19T07:29:23;95031.59;;;17.52;100.00
60433;BME280;46286;48.098;11.590;2022-08-19T07:31:50;95029.50;;;17.58;100.00
60433;BME280;46286;48.098;11.590;2022-08-19T07:34:16;95028.84;;;17.61;100.00
60433;BME280;46286;48.098;11.590;2022-08-19T07:36:43;95029.09;;;17.68;100.00
60433;BME280;46286;48.098;11.590;2022-08-19T07:39:15;95027.81;;;17.74;100.00
60433;BME280;46286;48.098;11.590;2022-08-19T07:41:42;95034.25;;;17.73;100.00
60433;BME280;46286;48.098;11.590;2022-08-19T07:44:08;95036.25;;;17.76;100.00
60433;BME280;46286;48.098;11.590;2022-08-19T07:46:37;95045.13;;;17.80;100.00
60433;BME280;46286;48.098;11.590;2022-08-19T07:49:03;95045.53;;;17.70;100.00
60433;BME280;46286;48.098;11.590;2022-08-19T07:51:29;95045.31;;;17.75;100.00
60433;BME280;46286;48.098;11.590;2022-08-19T07:53:55;95053.13;;;17.80;100.00
60433;BME280;46286;48.098;11.590;2022-08-19T07:56:21;95049.16;;;17.87;100.00
60433;BME280;46286;48.098;11.590;2022-08-19T07:58:49;95049.22;;;17.99;100.00
60433;BME280;46286;48.098;11.590;2022-08-19T08:01:18;95053.44;;;18.00;100.00
60433;BME280;46286;48.098;11.590;2022-08-19T08:03:44;95048.31;;;17.95;100.00
60433;BME280;46286;48.098;11.590;2022-08-19T08:06:29;95058.06;;;17.91;100.00
60433;BME280;46286;48.098;11.590;2022-08-19T08:09:16;95061.53;;;17.82;100.00
60433;BME280;46286;48.098;11.590;2022-08-19T08:11:47;95065.34;;;17.81;100.00
60433;BME280;46286;48.098;11.590;2022-08-19T08:14:19;95068.84;;;17.73;100.00
60433;BME280;46286;48.098;11.590;2022-08-19T08:16:45;95068.69;;;17.70;100.00
60433;BME280;46286;48.098;11.590;2022-08-19T08:19:12;95067.94;;;17.69;100.00
60433;BME280;46286;48.098;11.590;2022-08-19T08:21:40;95068.13;;;17.64;100.00
60433;BME280;46286;48.098;11.590;2022-08-19T08:24:07;95065.44;;;17.64;100.00
60433;BME280;46286;48.098;11.590;2022-08-19T08:26:32;95063.91;;;17.63;100.00
60433;BME280;46286;48.098;11.590;2022-08-19T08:28:58;95067.16;;;17.69;100.00
60433;BME280;46286;48.098;11.590;2022-08-19T08:31:23;95077.22;;;17.63;100.00
60433;BME280;46286;48.098;11.590;2022-08-19T08:33:49;95082.72;;;17.58;100.00
60433;BME280;46286;48.098;11.590;2022-08-19T08:36:15;95070.56;;;17.48;100.00
60433;BME280;46286;48.098;11.590;2022-08-19T08:38:42;95072.47;;;17.47;100.00
60433;BME280;46286;48.098;11.590;2022-08-19T08:41:18;95086.88;;;17.46;100.00
60433;BME280;46286;48.098;11.590;2022-08-19T08:43:49;95090.94;;;17.44;100.00
60433;BME280;46286;48.098;11.590;2022-08-19T08:46:41;95092.19;;;17.46;100.00
60433;BME280;46286;48.098;11.590;2022-08-19T08:52:27;95088.50;;;17.39;100.00
60433;BME280;46286;48.098;11.590;2022-08-19T08:54:57;95096.41;;;17.47;100.00
60433;BME280;46286;48.098;11.590;2022-08-19T09:00:19;95100.81;;;17.43;100.00
60433;BME280;46286;48.098;11.590;2022-08-19T09:02:46;95101.00;;;17.38;100.00
60433;BME280;46286;48.098;11.590;2022-08-19T09:05:11;95111.63;;;17.38;100.00
60433;BME280;46286;48.098;11.590;2022-08-19T09:08:07;95109.44;;;17.40;100.00
60433;BME280;46286;48.098;11.590;2022-08-19T09:10:37;95103.34;;;17.40;100.00
60433;BME280;46286;48.098;11.590;2022-08-19T09:13:16;95105.22;;;17.39;100.00
60433;BME280;46286;48.098;11.590;2022-08-19T09:15:48;95103.47;;;17.43;100.00
60433;BME280;46286;48.098;11.590;2022-08-19T09:18:16;95109.72;;;17.47;100.00
60433;BME280;46286;48.098;11.590;2022-08-19T09:20:42;95104.56;;;17.42;100.00
60433;BME280;46286;48.098;11.590;2022-08-19T09:23:08;95097.25;;;17.39;100.00
60433;BME280;46286;48.098;11.590;2022-08-19T09:25:36;95097.72;;;17.41;100.00
60433;BME280;46286;48.098;11.590;2022-08-19T09:28:01;95099.25;;;17.42;100.00
60433;BME280;46286;48.098;11.590;2022-08-19T09:30:31;95100.00;;;17.52;100.00
60433;BME280;46286;48.098;11.590;2022-08-19T09:32:58;95100.31;;;17.50;100.00
60433;BME280;46286;48.098;11.590;2022-08-19T09:35:26;95100.63;;;17.48;100.00
60433;BME280;46286;48.098;11.590;2022-08-19T09:37:53;95107.25;;;17.63;100.00
60433;BME280;46286;48.098;11.590;2022-08-19T09:40:19;95095.84;;;17.63;100.00
60433;BME280;46286;48.098;11.590;2022-08-19T09:42:46;95093.63;;;17.65;100.00
60433;BME280;46286;48.098;11.590;2022-08-19T09:45:17;95094.53;;;17.69;100.00
60433;BME280;46286;48.098;11.590;2022-08-19T09:47:45;95087.38;;;17.61;100.00
60433;BME280;46286;48.098;11.590;2022-08-19T09:50:12;95095.19;;;17.66;100.00
60433;BME280;46286;48.098;11.590;2022-08-19T09:52:38;95094.09;;;17.67;100.00
60433;BME280;46286;48.098;11.590;2022-08-19T09:55:05;95101.69;;;17.77;100.00
60433;BME280;46286;48.098;11.590;2022-08-19T09:57:31;95099.03;;;17.77;100.00
60433;BME280;46286;48.098;11.590;2022-08-19T09:59:56;95108.19;;;17.89;100.00
60433;BME280;46286;48.098;11.590;2022-08-19T10:02:22;95104.66;;;17.97;100.00
60433;BME280;46286;48.098;11.590;2022-08-19T10:04:48;95105.41;;;18.06;100.00
60433;BME280;46286;48.098;11.590;2022-08-19T10:07:32;95103.38;;;18.03;100.00
60433;BME280;46286;48.098;11.590;2022-08-19T10:09:57;95102.06;;;18.09;100.00
60433;BME280;46286;48.098;11.590;2022-08-19T10:12:23;95112.56;;;18.27;100.00
60433;BME280;46286;48.098;11.590;2022-08-19T10:14:49;95108.13;;;18.31;100.00
60433;BME280;46286;48.098;11.590;2022-08-19T10:17:16;95109.94;;;18.39;100.00
60433;BME280;46286;48.098;11.590;2022-08-19T10:19:42;95106.63;;;18.55;100.00
60433;BME280;46286;48.098;11.590;2022-08-19T10:22:08;95105.34;;;18.85;100.00
60433;BME280;46286;48.098;11.590;2022-08-19T10:24:36;95096.91;;;18.71;100.00
60433;BME280;46286;48.098;11.590;2022-08-19T10:27:02;95100.91;;;18.65;100.00
60433;BME280;46286;48.098;11.590;2022-08-19T10:29:31;95102.66;;;18.73;100.00
60433;BME280;46286;48.098;11.590;2022-08-19T10:31:58;95090.03;;;18.82;100.00
60433;BME280;46286;48.098;11.590;2022-08-19T10:34:25;95093.16;;;19.09;100.00
60433;BME280;46286;48.098;11.590;2022-08-19T10:36:51;95088.47;;;19.43;100.00
60433;BME280;46286;48.098;11.590;2022-08-19T10:39:17;95087.78;;;19.59;100.00
60433;BME280;46286;48.098;11.590;2022-08-19T10:41:42;95090.19;;;19.64;100.00
60433;BME280;46286;48.098;11.590;2022-08-19T10:44:10;95082.00;;;19.56;100.00
60433;BME280;46286;48.098;11.590;2022-08-19T10:46:39;95083.22;;;19.59;100.00
60433;BME280;46286;48.098;11.590;2022-08-19T10:49:08;95092.56;;;19.53;100.00
60433;BME280;46286;48.098;11.590;2022-08-19T10:51:35;95093.41;;;19.94;100.00
60433;BME280;46286;48.098;11.590;2022-08-19T10:54:19;95090.72;;;20.67;100.00
60433;BME280;46286;48.098;11.590;2022-08-19T10:56:45;95086.41;;;20.78;100.00
60433;BME280;46286;48.098;11.590;2022-08-19T10:59:22;95086.00;;;21.27;100.00
60433;BME280;46286;48.098;11.590;2022-08-19T11:01:50;95090.88;;;20.74;100.00
60433;BME280;46286;48.098;11.590;2022-08-19T11:04:17;95090.94;;;20.62;100.00
60433;BME280;46286;48.098;11.590;2022-08-19T11:06:44;95085.66;;;20.49;100.00
60433;BME280;46286;48.098;11.590;2022-08-19T11:09:21;95079.91;;;20.03;100.00
60433;BME280;46286;48.098;11.590;2022-08-19T11:11:49;95080.56;;;20.00;100.00
60433;BME280;46286;48.098;11.590;2022-08-19T11:14:17;95079.78;;;19.99;100.00
60433;BME280;46286;48.098;11.590;2022-08-19T11:16:45;95076.56;;;19.94;100.00
60433;BME280;46286;48.098;11.590;2022-08-19T11:19:11;95073.00;;;20.02;100.00
60433;BME280;46286;48.098;11.590;2022-08-19T11:21:41;95074.56;;;20.03;100.00
60433;BME280;46286;48.098;11.590;2022-08-19T11:24:10;95069.81;;;20.12;100.00
60433;BME280;46286;48.098;11.590;2022-08-19T11:26:37;95080.09;;;20.10;100.00
60433;BME280;46286;48.098;11.590;2022-08-19T11:29:03;95078.22;;;20.27;100.00
60433;BME280;46286;48.098;11.590;2022-08-19T11:31:31;95075.81;;;20.21;100.00
60433;BME280;46286;48.098;11.590;2022-08-19T11:33:58;95072.50;;;20.12;100.00
60433;BME280;46286;48.098;11.590;2022-08-19T11:36:25;95074.63;;;20.06;100.00
60433;BME280;46286;48.098;11.590;2022-08-19T11:38:51;95073.91;;;19.94;100.00
60433;BME280;46286;48.098;11.590;2022-08-19T11:41:19;95073.28;;;19.84;100.00
60433;BME280;46286;48.098;11.590;2022-08-19T11:43:45;95077.31;;;19.66;100.00
60433;BME280;46286;48.098;11.590;2022-08-19T11:46:13;95078.75;;;19.63;100.00
60433;BME280;46286;48.098;11.590;2022-08-19T11:48:39;95078.47;;;19.52;100.00
60433;BME280;46286;48.098;11.590;2022-08-19T11:51:11;95083.13;;;19.43;100.00
60433;BME280;46286;48.098;11.590;2022-08-19T11:53:37;95079.59;;;19.39;100.00
60433;BME280;46286;48.098;11.590;2022-08-19T11:56:04;95075.13;;;19.31;100.00
60433;BME280;46286;48.098;11.590;2022-08-19T11:58:30;95075.69;;;19.36;100.00
60433;BME280;46286;48.098;11.590;2022-08-19T12:00:56;95075.13;;;19.43;100.00
60433;BME280;46286;48.098;11.590;2022-08-19T12:03:23;95088.47;;;19.55;100.00
60433;BME280;46286;48.098;11.590;2022-08-19T12:05:48;95091.09;;;19.68;100.00
60433;BME280;46286;48.098;11.590;2022-08-19T12:08:15;95085.91;;;20.00;100.00
60433;BME280;46286;48.098;11.590;2022-08-19T12:10:41;95085.84;;;20.56;100.00
60433;BME280;46286;48.098;11.590;2022-08-19T12:13:09;95084.66;;;20.70;100.00
60433;BME280;46286;48.098;11.590;2022-08-19T12:15:36;95085.13;;;20.72;100.00
60433;BME280;46286;48.098;11.590;2022-08-19T12:18:03;95089.41;;;21.08;100.00
60433;BME280;46286;48.098;11.590;2022-08-19T12:20:29;95099.28;;;20.60;100.00
60433;BME280;46286;48.098;11.590;2022-08-19T12:22:54;95097.22;;;20.53;100.00
60433;BME280;46286;48.098;11.590;2022-08-19T12:25:20;95108.72;;;20.25;100.00
60433;BME280;46286;48.098;11.590;2022-08-19T12:27:46;95100.88;;;20.33;100.00
60433;BME280;46286;48.098;11.590;2022-08-19T12:30:12;95100.38;;;19.99;100.00
60433;BME280;46286;48.098;11.590;2022-08-19T12:32:39;95104.28;;;19.77;100.00
60433;BME280;46286;48.098;11.590;2022-08-19T12:35:06;95097.06;;;19.89;100.00
60433;BME280;46286;48.098;11.590;2022-08-19T12:37:32;95102.19;;;19.82;100.00
60433;BME280;46286;48.098;11.590;2022-08-19T12:39:57;95098.41;;;19.83;100.00
60433;BME280;46286;48.098;11.590;2022-08-19T12:42:23;95109.88;;;19.84;100.00
60433;BME280;46286;48.098;11.590;2022-08-19T12:44:49;95102.84;;;19.92;100.00
60433;BME280;46286;48.098;11.590;2022-08-19T12:47:17;95119.75;;;19.96;100.00
60433;BME280;46286;48.098;11.590;2022-08-19T12:49:42;95122.44;;;19.83;100.00
60433;BME280;46286;48.098;11.590;2022-08-19T12:52:09;95123.75;;;19.89;100.00